Time;durP1;ratioP1;P1;durP2;ratioP2;P2;SDS_P1;SDS_P2;PMS_P1;PMS_P2;Temp;Humidity;BMP_temperature;BMP_pressure;BME280_temperature;BME280_humidity;BME280_pressure;Samples;Min_cycle;Max_cycle;Signal;HPM_P1;HPM_P2
2022/01/23 00:00:35;;;;;;;;;48.50;38.00;;;;;8.72;61.73;103034.19;4913090;28;45468;-88
2022/01/23 00:03:05;;;;;;;;;45.50;34.00;;;;;8.78;61.69;103043.88;4915767;28;45608;-87
2022/01/23 00:05:34;;;;;;;;;37.25;33.00;;;;;8.73;61.79;103033.31;4910885;28;45573;-87
2022/01/23 00:08:01;;;;;;;;;40.75;35.75;;;;;8.77;61.96;103038.59;4909035;28;45371;-88
2022/01/23 00:10:26;;;;;;;;;47.00;36.25;;;;;8.77;61.81;103043.88;4906267;28;45619;-88
2022/01/23 00:13:05;;;;;;;;;50.00;38.50;;;;;8.75;61.97;103062.47;4900713;28;45561;-88
2022/01/23 00:18:14;;;;;;;;;34.25;31.75;;;;;8.71;61.87;103039.53;4927837;28;45438;-88
2022/01/23 00:20:39;;;;;;;;;36.00;33.00;;;;;8.78;61.78;103049.19;4924426;28;45504;-88
2022/01/23 00:23:13;;;;;;;;;38.50;33.50;;;;;8.65;62.01;103021.88;4938357;28;45469;-87
2022/01/23 00:31:20;;;;;;;;;37.75;33.25;;;;;8.79;61.50;103042.97;4927079;28;45402;-88
2022/01/23 00:33:46;;;;;;;;;43.00;35.00;;;;;8.80;61.70;103039.41;4918527;28;45389;-88
2022/01/23 00:36:12;;;;;;;;;33.50;31.00;;;;;8.79;61.47;103035.00;4928026;28;48371;-85
2022/01/23 00:38:38;;;;;;;;;39.50;30.50;;;;;8.83;61.54;103034.09;4921988;28;45473;-87
2022/01/23 00:41:03;;;;;;;;;34.50;31.50;;;;;8.85;61.64;103031.38;4924878;28;45422;-87
2022/01/23 00:43:31;;;;;;;;;42.25;36.50;;;;;8.82;61.38;103019.03;4923012;28;45391;-87
2022/01/23 00:46:10;;;;;;;;;38.25;31.50;;;;;8.69;61.57;103018.31;4924990;28;47343;-88
2022/01/23 00:48:41;;;;;;;;;37.50;33.25;;;;;8.67;61.54;103020.09;4918353;28;45534;-87
2022/01/23 00:51:07;;;;;;;;;39.75;32.75;;;;;8.62;61.42;103013.09;4934127;28;45525;-87
2022/01/23 00:53:32;;;;;;;;;37.50;34.25;;;;;8.71;61.50;103013.00;4924764;28;45457;-87
2022/01/23 00:55:58;;;;;;;;;44.50;35.50;;;;;8.74;61.71;103034.19;4927569;28;46572;-88
2022/01/23 00:58:24;;;;;;;;;45.00;36.75;;;;;8.79;61.72;103016.41;4925471;28;45457;-87
2022/01/23 01:00:49;;;;;;;;;35.75;29.50;;;;;8.66;61.50;103010.38;4941454;28;45350;-87
2022/01/23 01:03:15;;;;;;;;;43.75;35.00;;;;;8.66;61.88;102988.22;4938601;28;45258;-87
2022/01/23 01:05:40;;;;;;;;;36.75;34.00;;;;;8.79;61.66;103020.84;4919171;28;45490;-88
2022/01/23 01:08:06;;;;;;;;;46.00;36.25;;;;;8.74;61.52;103016.47;5026461;28;45476;-88
2022/01/23 01:10:39;;;;;;;;;39.50;34.75;;;;;8.61;61.82;102987.41;5043033;28;45537;-88
2022/01/23 01:13:09;;;;;;;;;43.25;32.75;;;;;8.50;61.84;102975.16;5022303;28;45545;-88
2022/01/23 01:15:54;;;;;;;;;42.25;37.25;;;;;8.63;61.85;103007.75;5049898;28;46385;-88
2022/01/23 01:32:05;;;;;;;;;33.00;27.25;;;;;8.48;61.77;102984.03;5043550;28;45481;-88
2022/01/23 01:34:46;;;;;;;;;35.25;31.25;;;;;8.68;61.80;103011.25;5038428;28;45321;-88
2022/01/23 01:37:12;;;;;;;;;34.75;33.00;;;;;8.57;61.62;102996.34;5040626;28;45456;-88
2022/01/23 01:39:38;;;;;;;;;37.25;30.00;;;;;8.64;61.62;103009.50;5040862;28;45436;-88
2022/01/23 01:42:04;;;;;;;;;39.00;31.25;;;;;8.65;61.67;103005.94;5018368;28;45499;-88
2022/01/23 01:44:30;;;;;;;;;40.75;32.25;;;;;8.66;61.71;103014.78;5037309;28;45620;-88
2022/01/23 01:46:56;;;;;;;;;35.50;31.25;;;;;8.63;61.99;103004.22;5036638;28;45478;-88
2022/01/23 01:49:30;;;;;;;;;33.50;29.25;;;;;8.53;61.83;102987.50;5044978;28;45371;-87
2022/01/23 01:51:57;;;;;;;;;30.75;29.50;;;;;8.60;62.02;103004.25;5049455;28;45409;-88
2022/01/23 01:54:25;;;;;;;;;34.25;30.75;;;;;8.48;61.99;102994.66;5044700;28;45523;-88
2022/01/23 01:57:03;;;;;;;;;33.00;29.00;;;;;8.53;61.89;103000.78;5043598;28;46019;-88
2022/01/23 02:10:24;;;;;;;;;33.50;28.50;;;;;8.54;61.51;102989.28;5034040;28;45638;-87
2022/01/23 02:15:58;;;;;;;;;32.25;27.25;;;;;8.65;61.17;103016.56;5043125;28;45434;-87
2022/01/23 02:24:05;;;;;;;;;31.50;24.75;;;;;8.64;61.37;103004.19;5043662;28;45615;-87
2022/01/23 02:51:47;;;;;;;;;25.50;24.25;;;;;8.45;61.18;102955.75;5042509;28;45483;-88
2022/01/23 02:56:50;;;;;;;;;28.75;22.50;;;;;8.53;61.27;102958.31;5031662;28;45431;-87
2022/01/23 02:59:23;;;;;;;;;29.00;26.00;;;;;8.40;61.55;102954.06;5038961;28;45475;-87
2022/01/23 03:04:28;;;;;;;;;28.25;27.50;;;;;8.34;61.99;102954.94;5031070;28;45733;-87
2022/01/23 03:07:19;;;;;;;;;28.75;24.50;;;;;8.35;61.26;102951.41;5038560;28;45325;-87
2022/01/23 03:09:56;;;;;;;;;30.75;28.00;;;;;8.37;61.34;102939.00;5040439;28;45377;-88
2022/01/23 03:13:23;;;;;;;;;34.25;29.00;;;;;8.39;61.58;102941.63;5036723;28;45490;-87
2022/01/23 03:27:00;;;;;;;;;32.50;31.25;;;;;8.48;61.53;102946.88;5033932;28;45492;-87
2022/01/23 03:34:19;;;;;;;;;35.50;29.25;;;;;8.49;61.29;102946.88;5046776;28;45415;-87
2022/01/23 03:36:44;;;;;;;;;33.00;29.25;;;;;8.46;61.40;102930.09;5040892;28;45343;-87
2022/01/23 03:39:11;;;;;;;;;39.25;32.25;;;;;8.45;61.42;102946.91;5035799;28;45511;-87
2022/01/23 03:41:42;;;;;;;;;22.25;19.50;;;;;8.51;61.26;102941.53;5040157;28;50146;-87
2022/01/23 03:44:10;;;;;;;;;27.25;25.50;;;;;8.46;61.22;102932.72;5042178;28;46346;-87
2022/01/23 03:49:31;;;;;;;;;30.75;24.25;;;;;8.36;60.91;102931.94;5038201;28;45547;-87
2022/01/23 03:51:57;;;;;;;;;35.75;29.75;;;;;8.31;61.56;102947.03;5039629;28;45253;-88
2022/01/23 03:54:24;;;;;;;;;33.00;27.75;;;;;8.14;61.85;102912.72;5047020;28;45753;-88
2022/01/23 03:56:50;;;;;;;;;27.75;25.75;;;;;8.24;61.33;102927.63;5035786;28;46177;-88
2022/01/23 03:59:15;;;;;;;;;29.25;25.75;;;;;8.19;61.86;102916.19;5043473;28;45403;-87
2022/01/23 04:01:40;;;;;;;;;28.25;25.00;;;;;8.30;61.81;102940.84;5045327;28;45543;-88
2022/01/23 04:04:18;;;;;;;;;34.25;29.50;;;;;8.15;61.74;102910.94;5037664;28;46134;-87
2022/01/23 04:06:43;;;;;;;;;31.25;29.75;;;;;8.30;61.78;102935.53;5019094;28;45388;-87
2022/01/23 04:09:08;;;;;;;;;31.00;29.00;;;;;8.30;62.07;102922.28;5037344;28;45347;-87
2022/01/23 04:11:34;;;;;;;;;39.00;30.75;;;;;8.30;61.85;102927.59;5036143;28;45232;-87
2022/01/23 04:14:07;;;;;;;;;30.00;27.50;;;;;8.15;61.98;102919.78;5036045;28;46331;-87
2022/01/23 04:35:46;;;;;;;;;33.75;29.75;;;;;8.34;62.12;102936.38;5036761;28;45800;-88
2022/01/23 04:46:32;;;;;;;;;29.50;25.25;;;;;8.27;61.77;102940.00;5034305;28;45557;-88
2022/01/23 04:59:32;;;;;;;;;33.75;26.25;;;;;8.14;61.78;102926.00;5037609;28;45671;-87
2022/01/23 04:59:54;;;;;;;;;25.00;23.50;;;;;8.19;61.50;102929.47;5036718;28;45479;-87
2022/01/23 05:04:46;;;;;;;;;19.25;16.25;;;;;8.24;61.40;102935.59;5036619;28;45472;-87
2022/01/23 05:07:13;;;;;;;;;27.00;18.75;;;;;8.28;61.56;102942.63;5036766;28;45561;-87
2022/01/23 05:09:39;;;;;;;;;29.50;22.25;;;;;8.19;61.54;102928.59;5035380;28;45459;-88
2022/01/23 05:12:07;;;;;;;;;21.25;19.00;;;;;8.27;61.50;102948.84;5036533;28;45324;-87
2022/01/23 05:14:37;;;;;;;;;24.25;22.00;;;;;8.07;61.70;102922.50;5036608;28;45346;-88
2022/01/23 05:17:04;;;;;;;;;25.50;21.25;;;;;8.23;61.68;102930.34;5018106;28;47778;-87
2022/01/23 05:19:30;;;;;;;;;25.00;24.25;;;;;8.14;61.79;102914.50;5018866;28;45574;-88
2022/01/23 05:24:46;;;;;;;;;22.75;19.00;;;;;8.15;61.77;102926.84;5035766;28;45410;-87
2022/01/23 05:27:11;;;;;;;;;31.25;25.75;;;;;8.17;61.68;102946.31;5018362;28;47368;-87
2022/01/23 05:29:37;;;;;;;;;25.50;23.00;;;;;8.16;61.62;102942.78;5036579;28;45268;-87
2022/01/23 05:32:05;;;;;;;;;30.00;19.50;;;;;8.13;62.03;102936.59;5036611;28;45430;-87
2022/01/23 05:34:31;;;;;;;;;26.50;20.00;;;;;8.04;62.18;102927.00;5036735;28;45415;-87
2022/01/23 05:36:56;;;;;;;;;27.25;20.50;;;;;8.05;61.99;102947.31;5036518;28;46357;-87
2022/01/23 05:39:24;;;;;;;;;19.50;17.75;;;;;7.99;61.99;102944.72;5035689;28;45312;-87
2022/01/23 05:41:54;;;;;;;;;18.50;15.00;;;;;7.78;62.21;102916.63;5032416;28;45447;-88
2022/01/23 05:44:20;;;;;;;;;25.75;19.75;;;;;8.04;62.16;102933.16;5015076;28;46821;-87
2022/01/23 05:46:46;;;;;;;;;19.50;15.75;;;;;8.05;61.95;102940.22;5028731;28;46284;-87
2022/01/23 05:49:11;;;;;;;;;23.50;21.50;;;;;8.10;62.13;102941.06;5036495;28;45521;-88
2022/01/23 05:51:36;;;;;;;;;24.00;20.25;;;;;8.05;62.17;102940.22;5036785;28;45472;-87
2022/01/23 05:54:02;;;;;;;;;26.50;21.50;;;;;8.08;61.85;102958.78;5036034;28;45495;-87
2022/01/23 05:56:27;;;;;;;;;21.50;18.00;;;;;8.04;62.09;102949.06;5017617;28;47177;-88
2022/01/23 05:58:54;;;;;;;;;24.25;18.50;;;;;7.97;62.09;102936.78;5036111;28;45478;-88
2022/01/23 06:01:19;;;;;;;;;28.50;17.25;;;;;7.82;61.94;102935.16;5036310;28;45526;-88
2022/01/23 06:03:45;;;;;;;;;18.50;17.00;;;;;7.82;62.46;102947.53;5036663;28;45273;-87
2022/01/23 06:06:10;;;;;;;;;15.50;14.00;;;;;7.92;62.55;102958.94;5035515;28;46245;-87
2022/01/23 06:08:36;;;;;;;;;21.50;20.25;;;;;7.89;62.30;102950.09;5034836;28;45392;-88
2022/01/23 06:11:01;;;;;;;;;20.25;14.75;;;;;7.90;62.09;102937.72;5035519;28;45720;-88
2022/01/23 06:13:28;;;;;;;;;21.25;15.00;;;;;7.99;62.16;102952.69;5035817;28;45489;-87
2022/01/23 06:15:54;;;;;;;;;14.75;13.50;;;;;8.01;62.19;102957.06;5031836;28;46210;-88
2022/01/23 06:18:20;;;;;;;;;15.00;12.25;;;;;7.86;62.38;102928.03;5035798;28;45590;-87
2022/01/23 06:20:46;;;;;;;;;14.50;12.75;;;;;7.88;62.27;102942.16;5034909;28;45467;-87
2022/01/23 06:23:12;;;;;;;;;16.75;14.25;;;;;7.90;62.26;102943.03;5035828;28;45459;-87
2022/01/23 06:25:41;;;;;;;;;18.75;16.25;;;;;7.95;61.81;102950.94;5035473;28;45435;-87
2022/01/23 06:28:07;;;;;;;;;18.00;15.00;;;;;7.86;61.97;102928.03;5035631;28;45459;-87
2022/01/23 06:30:33;;;;;;;;;11.00;9.75;;;;;7.97;61.83;102944.72;5036388;28;45206;-87
2022/01/23 06:32:59;;;;;;;;;16.00;13.75;;;;;7.79;61.80;102913.97;5017524;28;45637;-87
2022/01/23 06:35:25;;;;;;;;;10.75;10.75;;;;;8.01;62.06;102949.13;5035304;28;45831;-88
2022/01/23 06:37:51;;;;;;;;;12.25;11.25;;;;;7.98;61.49;102945.59;5035692;28;45578;-87
2022/01/23 06:40:17;;;;;;;;;11.25;11.00;;;;;8.02;61.78;102950.88;5035204;28;45822;-87
2022/01/23 06:42:42;;;;;;;;;19.25;16.75;;;;;8.03;61.42;102949.09;5016972;28;45507;-87
2022/01/23 06:45:07;;;;;;;;;11.00;10.00;;;;;8.08;61.47;102948.16;5035165;28;45463;-88
2022/01/23 06:47:33;;;;;;;;;14.50;11.00;;;;;7.99;61.22;102928.81;5035040;28;45397;-87
2022/01/23 06:49:58;;;;;;;;;16.75;13.00;;;;;8.00;61.46;102955.31;5035585;28;45590;-87
2022/01/23 06:52:24;;;;;;;;;14.25;10.50;;;;;7.96;61.53;102939.44;5035473;28;45526;-87
2022/01/23 06:54:50;;;;;;;;;16.00;14.25;;;;;7.92;61.64;102933.28;5035474;28;46425;-87
2022/01/23 06:57:15;;;;;;;;;20.25;14.75;;;;;7.92;61.87;102930.63;5035057;28;45450;-87
2022/01/23 06:59:40;;;;;;;;;15.00;12.50;;;;;8.02;61.80;102956.16;5035098;28;45395;-87
2022/01/23 07:02:06;;;;;;;;;15.50;15.50;;;;;7.96;61.61;102947.38;5033998;28;45446;-87
2022/01/23 07:04:31;;;;;;;;;15.75;12.50;;;;;8.00;62.04;102955.31;5034305;28;46163;-87
2022/01/23 07:06:57;;;;;;;;;10.00;10.00;;;;;7.94;62.01;102950.06;5031557;28;45345;-87
2022/01/23 07:09:22;;;;;;;;;23.25;19.25;;;;;7.89;61.85;102954.53;5016294;28;45374;-87
2022/01/23 07:11:48;;;;;;;;;18.50;16.75;;;;;8.01;61.96;102970.34;5034639;28;45503;-87
2022/01/23 07:14:13;;;;;;;;;18.75;16.75;;;;;8.03;61.73;102972.94;5016785;28;46558;-87
2022/01/23 07:16:39;;;;;;;;;24.25;17.25;;;;;7.97;61.64;102957.13;5034476;28;45583;-87
2022/01/23 07:19:04;;;;;;;;;16.00;16.00;;;;;7.78;61.35;102936.06;5035287;28;45416;-87
2022/01/23 07:21:29;;;;;;;;;24.25;19.50;;;;;7.91;61.25;102963.34;5035393;28;45491;-87
2022/01/23 07:23:55;;;;;;;;;25.50;25.00;;;;;7.93;61.74;102960.69;5033991;28;45645;-87
2022/01/23 07:26:22;;;;;;;;;20.50;19.25;;;;;7.93;61.55;102964.19;5016600;28;45403;-87
2022/01/23 07:28:49;;;;;;;;;25.25;17.00;;;;;7.95;61.57;102977.47;5034479;28;45255;-87
2022/01/23 07:31:32;;;;;;;;;14.25;10.50;;;;;7.85;61.12;102952.81;5032959;28;45225;-87
2022/01/23 07:33:59;;;;;;;;;12.00;11.50;;;;;7.67;61.71;102932.63;5030938;28;45418;-87
2022/01/23 07:36:25;;;;;;;;;14.00;13.00;;;;;7.74;61.32;102936.97;5016620;28;45506;-87
2022/01/23 07:38:50;;;;;;;;;20.00;17.00;;;;;7.68;61.25;102945.00;5034157;28;45473;-87
2022/01/23 07:41:15;;;;;;;;;18.00;15.00;;;;;7.79;61.26;102947.53;5034867;28;45221;-88
2022/01/23 07:43:41;;;;;;;;;15.00;15.00;;;;;7.89;61.24;102959.84;5033258;28;48356;-87
2022/01/23 07:46:06;;;;;;;;;15.25;15.25;;;;;7.79;61.21;102948.44;5034061;28;45294;-87
2022/01/23 07:48:31;;;;;;;;;21.50;17.75;;;;;7.76;61.45;102952.88;5034816;28;45424;-87
2022/01/23 07:50:57;;;;;;;;;16.75;15.75;;;;;7.81;61.44;102956.38;5033829;28;45455;-88
2022/01/23 07:53:22;;;;;;;;;12.75;10.50;;;;;7.77;61.73;102957.28;5016109;28;47447;-88
2022/01/23 07:55:47;;;;;;;;;20.00;16.75;;;;;7.86;61.31;102962.50;5034336;28;45280;-87
2022/01/23 07:58:14;;;;;;;;;15.75;14.00;;;;;7.81;61.52;102957.22;5033233;28;45431;-87
2022/01/23 08:00:41;;;;;;;;;14.75;12.50;;;;;7.90;61.48;102972.19;5033530;28;46509;-87
2022/01/23 08:03:07;;;;;;;;;20.75;15.75;;;;;7.88;61.22;102997.84;5033359;28;45558;-88
2022/01/23 08:05:32;;;;;;;;;13.25;11.75;;;;;7.87;61.72;102989.03;5016239;28;45665;-87
2022/01/23 08:07:58;;;;;;;;;21.00;15.50;;;;;7.75;61.25;102970.56;5034080;28;46336;-87
2022/01/23 08:10:23;;;;;;;;;15.25;14.25;;;;;7.82;61.61;102985.53;5035441;28;45324;-86
2022/01/23 08:12:49;;;;;;;;;21.75;16.75;;;;;7.64;61.51;102952.06;5034722;28;45454;-88
2022/01/23 08:15:15;;;;;;;;;20.25;18.50;;;;;7.80;61.33;103003.22;5033728;28;45285;-88
2022/01/23 08:17:40;;;;;;;;;17.75;16.00;;;;;7.72;61.67;102990.91;5035533;28;45246;-88
2022/01/23 08:20:07;;;;;;;;;15.75;14.75;;;;;7.65;61.61;102990.09;5033936;28;45602;-88
2022/01/23 08:22:33;;;;;;;;;17.50;15.00;;;;;7.60;61.68;102965.38;5034115;28;46624;-88
2022/01/23 08:25:01;;;;;;;;;16.00;12.25;;;;;7.67;61.71;102998.88;5035354;28;45297;-91
2022/01/23 08:27:27;;;;;;;;;20.00;18.25;;;;;7.72;61.75;103013.00;5033762;28;45403;-90
2022/01/23 08:29:52;;;;;;;;;16.00;14.00;;;;;7.74;61.62;103005.03;5033899;28;45489;-90
2022/01/23 08:32:18;;;;;;;;;18.25;13.25;;;;;7.69;61.70;103002.41;5033977;28;45825;-90
2022/01/23 08:34:43;;;;;;;;;16.25;15.50;;;;;7.49;61.91;102997.25;5033924;28;45476;-89
2022/01/23 08:37:09;;;;;;;;;19.25;15.75;;;;;7.37;61.74;102997.34;5016232;28;45243;-90
2022/01/23 08:39:36;;;;;;;;;17.75;15.75;;;;;7.37;61.80;102974.38;5016359;28;45278;-90
2022/01/23 08:42:04;;;;;;;;;14.50;13.75;;;;;7.22;62.27;102962.09;5033895;28;45471;-90
2022/01/23 08:44:30;;;;;;;;;18.00;15.00;;;;;7.33;62.19;102983.22;5019348;28;45470;-90
2022/01/23 08:46:55;;;;;;;;;17.00;16.00;;;;;7.33;62.18;102977.91;5037151;28;45438;-90
2022/01/23 08:49:23;;;;;;;;;15.25;13.25;;;;;7.63;61.91;103002.47;5019445;28;45717;-90
2022/01/23 08:51:50;;;;;;;;;29.75;25.75;;;;;7.41;61.85;102965.53;5037231;28;45712;-90
2022/01/23 08:54:16;;;;;;;;;29.50;24.50;;;;;7.40;61.86;102974.34;5019062;28;45671;-90
2022/01/23 08:56:43;;;;;;;;;20.75;17.50;;;;;7.61;62.16;103004.25;5019163;28;45424;-90
2022/01/23 08:59:08;;;;;;;;;19.50;17.00;;;;;7.61;61.99;103005.13;5037123;28;45791;-90
2022/01/23 09:01:35;;;;;;;;;20.50;15.25;;;;;7.52;62.47;102983.97;5018454;28;47154;-91
2022/01/23 09:04:02;;;;;;;;;22.75;20.50;;;;;7.67;62.49;103013.03;5018828;28;46099;-90
2022/01/23 09:06:27;;;;;;;;;28.25;21.75;;;;;7.69;62.32;103008.59;5018928;28;45523;-91
2022/01/23 09:08:54;;;;;;;;;22.25;21.00;;;;;7.55;62.05;103005.19;5018587;28;45466;-91
2022/01/23 09:14:10;;;;;;;;;13.75;13.75;;;;;7.42;62.33;102987.59;5037551;28;45571;-90
2022/01/23 09:16:43;;;;;;;;;21.00;19.25;;;;;7.56;62.36;103004.28;5022603;28;46093;-91
2022/01/23 09:19:11;;;;;;;;;17.25;14.00;;;;;7.56;61.99;103040.50;5036866;28;45396;-91
2022/01/23 09:21:38;;;;;;;;;17.00;15.50;;;;;7.30;62.07;102991.19;5037320;28;45359;-91
2022/01/23 09:24:05;;;;;;;;;17.75;13.50;;;;;7.29;61.93;102988.53;5036643;28;45503;-90
2022/01/23 09:26:31;;;;;;;;;16.00;16.00;;;;;7.50;62.48;103029.94;5036716;28;45309;-90
2022/01/23 09:29:00;;;;;;;;;17.75;15.25;;;;;7.33;61.75;102998.25;5036667;28;45447;-91
2022/01/23 09:31:33;;;;;;;;;16.50;15.75;;;;;7.49;62.28;103018.47;5036646;28;45504;-91
2022/01/23 09:33:58;;;;;;;;;15.75;15.50;;;;;7.45;62.41;103014.94;5033194;28;45391;-91
2022/01/23 09:36:24;;;;;;;;;15.50;15.25;;;;;7.54;61.88;103015.78;5018634;28;45510;-91
2022/01/23 09:38:50;;;;;;;;;20.00;16.25;;;;;7.43;62.10;103003.50;5018461;28;45526;-91
2022/01/23 09:41:17;;;;;;;;;13.50;13.50;;;;;7.65;61.92;103037.81;5018567;28;47500;-91
2022/01/23 09:43:43;;;;;;;;;22.50;17.50;;;;;7.73;62.06;103035.09;5037499;28;45728;-90
2022/01/23 09:46:10;;;;;;;;;15.50;15.25;;;;;7.68;61.42;103001.53;5036503;28;45261;-90
2022/01/23 09:48:36;;;;;;;;;21.25;20.75;;;;;7.71;61.73;103010.38;5018729;28;45249;-90
2022/01/23 09:51:04;;;;;;;;;17.25;14.50;;;;;7.59;61.73;103004.25;5036258;28;45349;-91
2022/01/23 09:53:30;;;;;;;;;11.75;11.75;;;;;7.65;61.47;102996.25;5018321;28;45898;-90
2022/01/23 09:56:03;;;;;;;;;14.75;11.75;;;;;7.52;61.18;103021.09;5036544;28;45637;-91
2022/01/23 09:58:29;;;;;;;;;13.25;11.00;;;;;7.42;61.87;102996.41;5030618;28;45538;-90
2022/01/23 10:00:55;;;;;;;;;19.25;14.75;;;;;7.42;61.94;102999.06;5036568;28;45465;-91
2022/01/23 10:03:21;;;;;;;;;16.75;14.75;;;;;7.38;61.76;103017.63;5035093;28;45373;-90
2022/01/23 10:05:55;;;;;;;;;12.75;12.00;;;;;7.30;61.62;102963.81;5017591;28;45476;-90
2022/01/23 10:08:21;;;;;;;;;15.25;12.50;;;;;7.52;62.07;103031.69;5018446;28;45407;-90
2022/01/23 10:10:51;;;;;;;;;15.75;13.50;;;;;7.18;61.96;103007.16;5035430;28;46182;-90
2022/01/23 10:13:20;;;;;;;;;13.75;12.25;;;;;7.01;62.03;102986.06;5035695;28;45617;-90
2022/01/23 10:15:46;;;;;;;;;16.00;9.00;;;;;7.27;62.41;103036.25;5036030;28;45521;-91
2022/01/23 10:18:11;;;;;;;;;9.75;9.75;;;;;7.16;62.74;103028.34;5036043;28;45352;-90
2022/01/23 10:20:37;;;;;;;;;12.75;10.75;;;;;7.16;62.66;103003.63;5036001;28;46759;-90
2022/01/23 10:23:02;;;;;;;;;12.75;12.75;;;;;7.06;62.26;102989.56;5017754;28;45485;-90
2022/01/23 10:25:30;;;;;;;;;13.25;10.75;;;;;7.04;62.90;103008.09;5024632;28;45546;-91
2022/01/23 10:28:05;;;;;;;;;16.25;13.75;;;;;7.28;62.92;103018.59;5032656;28;45747;-91
2022/01/23 10:30:40;;;;;;;;;21.00;14.00;;;;;7.34;62.93;103053.88;5035037;28;45403;-91
2022/01/23 10:33:15;;;;;;;;;18.25;16.75;;;;;7.40;62.64;103029.09;5035249;28;45487;-92
2022/01/23 10:36:01;;;;;;;;;10.50;8.75;;;;;7.39;62.80;103025.59;5035928;28;45446;-91
2022/01/23 10:38:30;;;;;;;;;15.00;13.75;;;;;7.14;62.47;102998.34;5017854;28;46332;-91
2022/01/23 10:42:11;;;;;;;;;17.50;14.25;;;;;7.20;63.02;103010.69;5035599;28;45376;-91
2022/01/23 10:50:06;;;;;;;;;19.50;14.75;;;;;7.19;62.98;103001.88;5023269;28;45280;-91
2022/01/23 10:52:38;;;;;;;;;20.75;14.00;;;;;7.28;62.86;103010.63;5036499;28;48348;-91
2022/01/23 10:55:26;;;;;;;;;13.75;13.50;;;;;7.33;63.09;103014.13;5035517;28;45400;-91
2022/01/23 10:57:54;;;;;;;;;25.00;19.25;;;;;7.31;63.03;103006.22;5018222;28;45311;-91
2022/01/23 11:00:35;;;;;;;;;16.00;15.50;;;;;7.28;62.94;103008.88;5018104;28;45650;-91
2022/01/23 11:03:16;;;;;;;;;18.25;17.25;;;;;7.29;63.17;103007.09;5035057;28;45645;-91
2022/01/23 11:05:42;;;;;;;;;19.00;15.50;;;;;7.31;63.59;103003.56;5012700;28;45603;-90
2022/01/23 11:08:30;;;;;;;;;19.25;14.50;;;;;7.34;63.20;103003.53;5019046;28;45416;-91
2022/01/23 11:10:58;;;;;;;;;19.00;16.00;;;;;7.36;63.17;102993.81;5017476;28;45493;-91
2022/01/23 11:19:26;;;;;;;;;20.50;16.75;;;;;7.43;62.61;103000.84;5015052;28;45332;-92
2022/01/23 11:21:53;;;;;;;;;50.00;36.75;;;;;7.40;62.49;102968.16;5014460;28;45475;-92
2022/01/23 11:24:20;;;;;;;;;68.75;52.75;;;;;7.38;62.35;102967.28;5015942;28;46386;-94
2022/01/23 11:26:46;;;;;;;;;33.25;25.75;;;;;7.58;62.12;102989.25;5014005;28;45417;-94
2022/01/23 11:29:17;;;;;;;;;31.50;26.25;;;;;7.38;62.45;102938.16;5013841;28;45313;-92
2022/01/23 11:31:43;;;;;;;;;21.50;19.75;;;;;7.51;62.64;102984.88;5021781;28;45336;-94
2022/01/23 11:34:14;;;;;;;;;25.25;21.25;;;;;7.49;62.23;102969.88;5015370;28;46309;-93
2022/01/23 11:36:40;;;;;;;;;20.50;19.50;;;;;7.38;62.08;102965.53;5012557;28;45798;-92
2022/01/23 11:39:14;;;;;;;;;28.00;25.00;;;;;7.24;61.68;102917.94;5013142;28;45407;-90
2022/01/23 11:59:30;;;;;;;;;28.75;25.75;;;;;7.40;62.16;102946.97;5014134;28;45568;-89
2022/01/23 12:02:25;;;;;;;;;23.75;21.00;;;;;7.53;62.23;102938.06;5003284;28;45395;-89
2022/01/23 12:07:39;;;;;;;;;16.25;16.25;;;;;7.58;61.54;102920.34;5000989;28;45533;-90
2022/01/23 12:10:20;;;;;;;;;23.00;21.00;;;;;7.68;61.48;102924.66;5015737;28;45313;-89
2022/01/23 12:12:49;;;;;;;;;29.25;21.50;;;;;7.45;61.80;102922.19;5035735;28;45425;-90
2022/01/23 12:18:21;;;;;;;;;18.00;14.75;;;;;7.51;61.64;102915.09;5033856;28;45890;-89
2022/01/23 12:20:49;;;;;;;;;19.50;16.25;;;;;7.56;61.98;102918.59;5037855;28;45492;-89
2022/01/23 12:23:15;;;;;;;;;17.75;15.50;;;;;7.59;61.77;102911.47;5042080;28;45369;-90
2022/01/23 12:25:53;;;;;;;;;20.50;15.00;;;;;7.66;61.56;102930.88;5019661;28;45526;-90
2022/01/23 12:28:21;;;;;;;;;40.25;35.00;;;;;7.64;61.97;102909.66;5036977;28;45534;-89
2022/01/23 12:31:06;;;;;;;;;21.75;20.00;;;;;7.37;62.16;102862.22;5037977;28;45436;-89
2022/01/23 12:33:40;;;;;;;;;20.50;16.75;;;;;7.62;62.21;102910.56;5036937;28;45382;-89
2022/01/23 12:36:19;;;;;;;;;19.00;16.75;;;;;7.50;62.08;102898.31;5019453;28;45542;-89
2022/01/23 12:38:50;;;;;;;;;27.00;19.00;;;;;7.67;62.41;102895.50;5018847;28;47989;-90
2022/01/23 12:41:22;;;;;;;;;22.50;21.25;;;;;7.65;62.12;102894.66;5037233;28;45557;-89
2022/01/23 12:43:49;;;;;;;;;22.00;20.00;;;;;7.56;62.21;102890.31;5037254;28;45424;-89
2022/01/23 12:46:24;;;;;;;;;26.75;23.50;;;;;7.35;62.26;102869.31;5036973;28;45229;-89
2022/01/23 12:48:49;;;;;;;;;26.50;24.50;;;;;7.56;62.58;102886.78;5019593;28;46194;-90
2022/01/23 12:51:17;;;;;;;;;30.75;24.50;;;;;7.60;62.55;102877.91;5037241;28;45372;-89
2022/01/23 12:53:46;;;;;;;;;26.75;24.00;;;;;7.66;62.25;102875.22;5037325;28;45481;-90
2022/01/23 12:56:14;;;;;;;;;50.25;42.00;;;;;7.56;62.23;102869.13;5023568;28;45564;-89
2022/01/23 12:58:41;;;;;;;;;41.25;32.75;;;;;7.55;62.30;102845.25;5028521;28;47218;-90
2022/01/23 13:01:17;;;;;;;;;29.25;25.25;;;;;7.51;62.09;102852.38;5017456;28;45816;-89
2022/01/23 13:03:53;;;;;;;;;30.50;25.75;;;;;7.69;62.20;102883.13;5036412;28;45365;-89
2022/01/23 13:06:34;;;;;;;;;32.75;27.25;;;;;7.53;62.12;102847.03;5030529;28;46322;-89
2022/01/23 13:17:39;;;;;;;;;25.25;21.50;;;;;7.61;62.25;102843.44;4955647;28;45619;-89
2022/01/23 13:30:53;;;;;;;;;17.25;15.00;;;;;7.73;61.98;102830.97;4950098;28;46010;-89
2022/01/23 13:33:24;;;;;;;;;28.25;22.25;;;;;7.84;61.87;102843.22;4951750;28;45318;-89
2022/01/23 13:35:52;;;;;;;;;25.50;23.50;;;;;7.84;61.85;102829.97;4954278;28;45655;-89
2022/01/23 13:38:20;;;;;;;;;22.50;19.75;;;;;7.92;61.40;102824.56;4951827;28;45542;-89
2022/01/23 13:40:46;;;;;;;;;21.75;17.50;;;;;7.88;61.36;102828.13;4953913;28;45904;-89
2022/01/23 13:49:37;;;;;;;;;17.75;17.75;;;;;7.86;61.39;102801.66;4988004;28;45555;-89
2022/01/23 13:59:54;;;;;;;;;31.25;26.25;;;;;7.89;61.56;102792.78;4985164;28;45471;-89
2022/01/23 14:02:26;;;;;;;;;31.50;27.50;;;;;7.89;61.49;102790.13;4984221;28;47652;-89
2022/01/23 14:05:01;;;;;;;;;38.50;35.25;;;;;7.92;61.41;102792.75;5017686;28;45649;-89
2022/01/23 14:07:27;;;;;;;;;33.25;28.25;;;;;7.93;61.38;102783.88;5017498;28;45645;-89
2022/01/23 14:10:20;;;;;;;;;24.00;22.00;;;;;8.00;61.68;102785.56;5035637;28;45415;-90
2022/01/23 14:12:48;;;;;;;;;21.50;17.00;;;;;7.96;61.52;102777.66;5010487;28;46749;-89
2022/01/23 14:15:30;;;;;;;;;31.00;30.00;;;;;7.94;61.22;102755.59;5035157;28;45412;-89
2022/01/23 14:18:05;;;;;;;;;32.75;27.50;;;;;7.99;61.36;102780.28;5035610;28;45553;-89
2022/01/23 14:20:35;;;;;;;;;29.25;25.25;;;;;7.97;61.31;102764.41;5013278;28;45463;-90
2022/01/23 14:23:13;;;;;;;;;30.25;24.25;;;;;8.00;60.91;102780.25;5034935;28;45367;-88
2022/01/23 14:25:48;;;;;;;;;59.25;43.75;;;;;7.86;61.18;102761.88;5027584;28;45408;-90
2022/01/23 14:28:21;;;;;;;;;57.00;45.00;;;;;7.88;61.53;102778.63;5034778;28;45439;-89
2022/01/23 14:30:49;;;;;;;;;31.75;28.50;;;;;7.90;61.17;102765.38;5035323;28;45420;-90
2022/01/23 14:33:19;;;;;;;;;29.00;22.25;;;;;7.95;61.34;102765.31;5034561;28;45672;-90
2022/01/23 14:35:46;;;;;;;;;28.25;25.00;;;;;7.94;61.31;102756.47;5034212;28;45416;-89
2022/01/23 14:38:16;;;;;;;;;22.00;20.00;;;;;8.09;61.24;102764.22;5026559;28;45395;-91
2022/01/23 14:41:11;;;;;;;;;17.50;15.25;;;;;8.13;61.14;102757.13;5028445;28;45501;-89
2022/01/23 14:43:39;;;;;;;;;19.00;18.75;;;;;8.20;61.19;102760.53;4986514;28;47330;-90
2022/01/23 14:46:07;;;;;;;;;23.75;19.75;;;;;8.20;61.14;102753.50;5035228;28;45324;-90
2022/01/23 14:48:39;;;;;;;;;20.25;18.75;;;;;8.16;61.03;102748.25;5031111;28;45315;-90